createdAt,value
2023-01-31T00:02:25.655Z,99842.85
2023-01-31T00:04:58.188Z,99829.67
2023-01-31T00:07:30.698Z,99850.92
2023-01-31T00:10:03.142Z,99856.79
2023-01-31T00:12:36.098Z,99857.19
2023-01-31T00:15:10.436Z,99858.36
2023-01-31T00:17:43.046Z,99867.05
2023-01-31T00:20:16.081Z,99865.31
2023-01-31T00:22:49.703Z,99869.75
2023-01-31T00:25:22.866Z,99881.27
2023-01-31T00:27:55.308Z,99891.27
2023-01-31T00:30:27.678Z,99890.82
2023-01-31T00:33:00.037Z,99890.21
2023-01-31T00:35:32.626Z,99900.02
2023-01-31T00:38:05.041Z,99897.41
2023-01-31T00:40:37.904Z,99904.05
2023-01-31T00:43:11.970Z,99904.23
2023-01-31T00:45:46.545Z,99909.56
2023-01-31T00:48:19.592Z,99918.33
2023-01-31T00:50:52.263Z,99913.67
2023-01-31T00:53:25.834Z,99925.38
2023-01-31T00:56:04.197Z,99930.49
2023-01-31T00:58:37.295Z,99936.27
2023-01-31T01:01:12.706Z,99938.61
2023-01-31T01:03:45.890Z,99937.11
2023-01-31T01:06:19.272Z,99943.58
2023-01-31T01:08:51.656Z,99943.82
2023-01-31T01:11:26.667Z,99954.95
2023-01-31T01:14:00.287Z,99956.77
2023-01-31T01:16:37.092Z,99963.19
2023-01-31T01:19:13.980Z,99962.29
2023-01-31T01:21:46.964Z,99945.70
2023-01-31T01:24:20.744Z,99959.84
2023-01-31T01:26:53.076Z,99964.10
2023-01-31T01:29:26.272Z,99975.25
2023-01-31T01:31:58.905Z,99979.96
2023-01-31T01:34:31.903Z,99986.80
2023-01-31T01:37:11.769Z,99991.78
2023-01-31T01:39:44.135Z,99993.02
2023-01-31T01:42:19.387Z,99995.59
2023-01-31T01:44:54.160Z,99999.02
2023-01-31T01:47:46.852Z,100001.33
2023-01-31T01:50:24.755Z,100011.51
2023-01-31T01:53:02.467Z,100016.22
2023-01-31T01:55:38.663Z,100013.38
2023-01-31T01:58:15.085Z,100015.69
2023-01-31T02:00:49.011Z,100021.08
2023-01-31T02:03:23.949Z,100022.88
2023-01-31T02:06:00.093Z,100020.23
2023-01-31T02:08:36.253Z,100026.36
2023-01-31T02:11:16.867Z,100022.51
2023-01-31T02:13:51.648Z,100025.80
2023-01-31T02:16:22.463Z,100033.40
2023-01-31T02:18:55.767Z,100035.20
2023-01-31T02:22:00.997Z,100048.13
2023-01-31T02:25:06.038Z,100037.71
2023-01-31T02:28:01.367Z,100054.87
2023-01-31T02:31:04.163Z,100063.74
2023-01-31T02:33:43.119Z,100067.10
2023-01-31T02:36:29.204Z,100071.57
2023-01-31T02:39:13.329Z,100078.33
2023-01-31T02:41:51.701Z,100079.67
2023-01-31T02:44:51.261Z,100082.37
2023-01-31T02:47:33.079Z,100084.84
2023-01-31T02:50:12.682Z,100085.21
2023-01-31T02:52:51.530Z,100094.99
2023-01-31T02:55:44.864Z,100099.30
2023-01-31T02:58:23.565Z,100101.65
2023-01-31T03:01:00.295Z,100115.17
2023-01-31T03:03:35.147Z,100114.78
2023-01-31T03:06:54.882Z,100120.30
2023-01-31T03:09:41.032Z,100120.77
2023-01-31T03:12:38.081Z,100129.55
2023-01-31T03:15:21.879Z,100123.53
2023-01-31T03:18:03.216Z,100142.66
2023-01-31T03:20:44.254Z,100141.24
2023-01-31T03:23:20.585Z,100143.62
2023-01-31T03:25:53.957Z,100150.06
2023-01-31T03:28:31.961Z,100152.98
2023-01-31T03:31:12.028Z,100154.38
2023-01-31T03:33:47.457Z,100159.34
2023-01-31T03:36:31.341Z,100163.95
2023-01-31T03:39:18.710Z,100170.65
2023-01-31T03:41:58.666Z,100167.95
2023-01-31T03:44:38.088Z,100171.91
2023-01-31T03:47:17.147Z,100169.26
2023-01-31T03:49:52.932Z,100175.11
2023-01-31T03:52:31.164Z,100173.09
2023-01-31T03:55:10.602Z,100185.60
2023-01-31T03:57:47.031Z,100193.05
2023-01-31T04:00:23.691Z,100196.27
2023-01-31T04:03:06.110Z,100203.69
2023-01-31T04:05:38.935Z,100205.77
2023-01-31T04:08:12.276Z,100208.63
2023-01-31T04:10:45.729Z,100215.29
2023-01-31T04:13:18.152Z,100210.61
2023-01-31T04:15:50.619Z,100214.08
2023-01-31T04:18:23.020Z,100221.15
2023-01-31T04:20:55.648Z,100205.20
2023-01-31T04:23:28.461Z,100218.58
2023-01-31T04:26:01.211Z,100216.54
2023-01-31T04:28:33.951Z,100228.94
2023-01-31T04:31:06.639Z,100232.77
2023-01-31T04:33:39.120Z,100220.48
2023-01-31T04:36:12.791Z,100240.61
2023-01-31T04:38:45.295Z,100242.05
2023-01-31T04:41:20.782Z,100244.13
2023-01-31T04:43:53.227Z,100246.35
2023-01-31T04:46:25.917Z,100252.88
2023-01-31T04:48:58.216Z,100254.21
2023-01-31T04:51:30.644Z,100252.29
2023-01-31T04:54:03.225Z,100256.84
2023-01-31T04:56:36.351Z,100260.39
2023-01-31T04:59:08.909Z,100259.77
2023-01-31T05:01:42.255Z,100268.28
2023-01-31T05:04:14.817Z,100269.61
2023-01-31T05:06:47.180Z,100271.70
2023-01-31T05:09:20.427Z,100277.32
2023-01-31T05:11:53.077Z,100278.74
2023-01-31T05:14:25.441Z,100278.84
2023-01-31T05:16:57.788Z,100283.96
2023-01-31T05:19:30.616Z,100287.59
2023-01-31T05:22:03.047Z,100283.70
2023-01-31T05:24:38.655Z,100274.73
2023-01-31T05:27:12.647Z,100286.80
2023-01-31T05:29:45.886Z,100287.55
2023-01-31T05:32:19.914Z,100278.05
2023-01-31T05:34:53.090Z,100293.20
2023-01-31T05:37:25.471Z,100287.63
2023-01-31T05:39:57.786Z,100307.58
2023-01-31T05:42:30.186Z,100314.58
2023-01-31T05:45:02.827Z,100324.91
2023-01-31T05:47:35.432Z,100323.11
2023-01-31T05:50:09.449Z,100325.05
2023-01-31T05:52:42.105Z,100325.94
2023-01-31T05:55:14.649Z,100326.30
2023-01-31T05:57:47.611Z,100328.73
2023-01-31T06:00:24.589Z,100322.02
2023-01-31T06:03:00.290Z,100331.13
2023-01-31T06:05:33.236Z,100338.80
2023-01-31T06:08:05.668Z,100340.89
2023-01-31T06:10:40.574Z,100344.19
2023-01-31T06:13:13.181Z,100347.81
2023-01-31T06:15:47.278Z,100351.40
2023-01-31T06:18:20.618Z,100351.98
2023-01-31T06:20:55.793Z,100355.92
2023-01-31T06:23:28.455Z,100361.55
2023-01-31T06:26:01.188Z,100360.02
2023-01-31T06:28:34.447Z,100362.17
2023-01-31T06:31:11.609Z,100363.05
2023-01-31T06:33:47.777Z,100366.58
2023-01-31T06:36:21.317Z,100373.08
2023-01-31T06:38:57.151Z,100374.02
2023-01-31T06:41:29.445Z,100347.74
2023-01-31T06:44:01.914Z,100383.77
2023-01-31T06:46:34.668Z,100392.39
2023-01-31T06:49:07.402Z,100391.84
2023-01-31T06:51:39.938Z,100386.88
2023-01-31T06:54:13.375Z,100365.21
2023-01-31T06:56:46.315Z,100401.15
2023-01-31T06:59:27.089Z,100400.45
2023-01-31T07:02:01.354Z,100405.52
2023-01-31T07:04:33.809Z,100409.95
2023-01-31T07:07:06.753Z,100415.20
2023-01-31T07:09:39.864Z,100420.63
2023-01-31T07:12:12.889Z,100417.05
2023-01-31T07:14:45.284Z,100424.63
2023-01-31T07:17:17.960Z,100421.08
2023-01-31T07:19:50.448Z,100427.79
2023-01-31T07:22:23.034Z,100428.90
2023-01-31T07:24:55.377Z,100435.73
2023-01-31T07:27:28.332Z,100434.29
2023-01-31T07:30:01.091Z,100445.48
2023-01-31T07:32:34.503Z,100446.80
2023-01-31T07:35:07.931Z,100447.45
2023-01-31T07:37:40.830Z,100449.91
2023-01-31T07:40:17.296Z,100445.40
2023-01-31T07:42:50.257Z,100447.47
2023-01-31T07:45:24.063Z,100446.72
2023-01-31T07:47:58.353Z,100445.41
2023-01-31T07:50:31.035Z,100448.23
2023-01-31T07:53:03.529Z,100448.64
2023-01-31T07:55:35.950Z,100446.73
2023-01-31T07:58:08.511Z,100450.40
2023-01-31T08:00:58.883Z,100454.00
2023-01-31T08:03:35.268Z,100457.65
2023-01-31T08:06:12.032Z,100459.84
2023-01-31T08:08:46.155Z,100462.09
2023-01-31T08:11:19.032Z,100461.54
2023-01-31T08:13:51.434Z,100458.44
2023-01-31T08:16:24.021Z,100460.23
2023-01-31T08:18:56.604Z,100454.55
2023-01-31T08:21:29.438Z,100466.60
2023-01-31T08:24:01.968Z,100472.39
2023-01-31T08:26:34.882Z,100468.21
2023-01-31T08:29:07.701Z,100473.71
2023-01-31T08:31:41.933Z,100459.66
2023-01-31T08:34:14.741Z,100479.84
2023-01-31T08:36:47.821Z,100486.52
2023-01-31T08:39:20.548Z,100489.40
2023-01-31T08:41:53.221Z,100490.10
2023-01-31T08:44:25.833Z,100491.47
2023-01-31T08:47:00.832Z,100491.92
2023-01-31T08:49:36.304Z,100489.87
2023-01-31T08:52:10.317Z,100485.04
2023-01-31T08:54:42.708Z,100484.81
2023-01-31T08:57:15.433Z,100477.34
2023-01-31T08:59:48.078Z,100476.42
2023-01-31T09:02:21.047Z,100484.58
2023-01-31T09:04:53.662Z,100482.47
2023-01-31T09:07:27.003Z,100489.90
2023-01-31T09:09:59.544Z,100489.00
2023-01-31T09:12:32.157Z,100486.02
2023-01-31T09:15:05.161Z,100487.38
2023-01-31T09:17:37.769Z,100492.56
2023-01-31T09:20:12.310Z,100492.27
2023-01-31T09:22:44.890Z,100489.84
2023-01-31T09:25:17.554Z,100497.58
2023-01-31T09:27:50.127Z,100505.92
2023-01-31T09:30:23.117Z,100499.70
2023-01-31T09:32:56.097Z,100501.77
2023-01-31T09:35:28.422Z,100501.75
2023-01-31T09:38:01.215Z,100505.74
2023-01-31T09:40:37.037Z,100498.79
2023-01-31T09:43:13.060Z,100503.55
2023-01-31T09:45:48.041Z,100502.44
2023-01-31T09:48:25.157Z,100510.73
2023-01-31T09:51:00.008Z,100512.20
2023-01-31T09:53:36.605Z,100499.15
2023-01-31T09:56:21.009Z,100505.95
2023-01-31T09:59:04.727Z,100512.33
2023-01-31T10:01:50.776Z,100503.90
2023-01-31T10:04:45.543Z,100505.89
2023-01-31T10:07:25.014Z,100504.20
2023-01-31T10:10:04.859Z,100502.18
2023-01-31T10:12:43.881Z,100495.99
2023-01-31T10:15:22.447Z,100487.73
2023-01-31T10:18:00.213Z,100484.86
2023-01-31T10:20:39.191Z,100482.18
2023-01-31T10:23:18.937Z,100484.08
2023-01-31T10:25:56.854Z,100479.81
2023-01-31T10:28:36.881Z,100472.95
2023-01-31T10:31:18.174Z,100476.92
2023-01-31T10:33:56.964Z,100474.77
2023-01-31T10:36:35.116Z,100478.43
2023-01-31T10:39:16.231Z,100481.73
2023-01-31T10:42:04.985Z,100472.54
2023-01-31T10:44:47.155Z,100473.72
2023-01-31T10:47:21.446Z,100463.96
2023-01-31T10:49:53.822Z,100455.20
2023-01-31T10:52:42.007Z,100439.98
2023-01-31T10:55:29.642Z,100435.84
2023-01-31T10:58:02.483Z,100447.41
2023-01-31T11:00:35.955Z,100448.23
2023-01-31T11:03:08.591Z,100444.99
2023-01-31T11:05:45.706Z,100443.04
2023-01-31T11:08:30.949Z,100424.64
2023-01-31T11:11:09.307Z,100414.23
2023-01-31T11:13:41.964Z,100425.58
2023-01-31T11:16:15.528Z,100418.89
2023-01-31T11:18:50.792Z,100416.85
2023-01-31T11:21:26.273Z,100410.10
2023-01-31T11:24:06.967Z,100410.05
2023-01-31T11:26:41.205Z,100407.15
2023-01-31T11:29:23.897Z,100404.63
2023-01-31T11:31:57.221Z,100397.73
2023-01-31T11:34:31.795Z,100398.30
2023-01-31T11:37:15.291Z,100401.13
2023-01-31T11:39:58.067Z,100382.64
2023-01-31T11:42:30.749Z,100390.89
2023-01-31T11:45:06.067Z,100396.29
2023-01-31T11:47:44.897Z,100392.70
2023-01-31T11:50:27.859Z,100391.33
2023-01-31T11:53:03.336Z,100371.03
2023-01-31T11:55:41.171Z,100377.20
2023-01-31T11:58:23.363Z,100372.33
2023-01-31T12:01:02.688Z,100369.17
2023-01-31T12:03:35.937Z,100364.67
2023-01-31T12:06:10.935Z,100361.67
2023-01-31T12:08:44.841Z,100357.40
2023-01-31T12:11:32.026Z,100355.95
2023-01-31T12:14:17.238Z,100356.02
2023-01-31T12:16:51.453Z,100351.17
2023-01-31T12:19:38.305Z,100344.73
2023-01-31T12:22:17.484Z,100326.66
2023-01-31T12:25:02.371Z,100337.48
2023-01-31T12:27:47.993Z,100329.77
2023-01-31T12:30:40.673Z,100318.27
2023-01-31T12:33:29.742Z,100320.46
2023-01-31T12:36:13.224Z,100307.02
2023-01-31T12:38:59.232Z,100313.99
2023-01-31T12:41:37.959Z,100308.63
2023-01-31T12:44:29.277Z,100300.63
2023-01-31T12:47:29.294Z,100278.50
2023-01-31T12:50:27.843Z,100287.89
2023-01-31T12:53:19.046Z,100282.92
2023-01-31T12:56:05.863Z,100273.98
2023-01-31T12:58:50.565Z,100268.11
2023-01-31T13:01:33.613Z,100263.98
2023-01-31T13:04:32.618Z,100254.73
2023-01-31T13:07:09.259Z,100254.36
2023-01-31T13:09:42.667Z,100253.80
2023-01-31T13:12:20.607Z,100247.08
2023-01-31T13:14:59.147Z,100246.92
2023-01-31T13:17:33.447Z,100247.30
2023-01-31T13:20:20.294Z,100247.44
2023-01-31T13:22:57.385Z,100233.71
2023-01-31T13:25:39.201Z,100229.17
2023-01-31T13:28:18.371Z,100246.20
2023-01-31T13:30:56.984Z,100247.99
2023-01-31T13:33:36.156Z,100242.27
2023-01-31T13:36:21.111Z,100237.96
2023-01-31T13:38:54.128Z,100235.92
2023-01-31T13:41:30.575Z,100236.67
2023-01-31T13:44:04.191Z,100208.63
2023-01-31T13:46:41.504Z,100218.95
2023-01-31T13:49:22.369Z,100218.59
2023-01-31T13:51:59.242Z,100216.98
2023-01-31T13:54:38.718Z,100210.20
2023-01-31T13:57:25.292Z,100202.09
2023-01-31T14:00:04.255Z,100194.44
2023-01-31T14:02:37.575Z,100191.86
2023-01-31T14:05:49.731Z,100189.41
2023-01-31T14:08:40.052Z,100180.27
2023-01-31T14:11:36.419Z,100180.96
2023-01-31T14:14:29.337Z,100170.31
2023-01-31T14:17:02.165Z,100159.06
2023-01-31T14:20:05.652Z,100158.38
2023-01-31T14:22:41.605Z,100135.55
2023-01-31T14:25:17.687Z,100146.44
2023-01-31T14:28:04.469Z,100144.15
2023-01-31T14:30:41.325Z,100137.92
2023-01-31T14:33:26.791Z,100136.38
2023-01-31T14:36:27.828Z,100137.06
2023-01-31T14:39:29.252Z,100141.32
2023-01-31T14:42:55.509Z,100129.00
2023-01-31T14:45:34.195Z,100147.12
2023-01-31T14:48:24.976Z,100134.00
2023-01-31T14:51:19.591Z,100131.52
2023-01-31T14:54:09.643Z,100125.42
2023-01-31T14:56:56.230Z,100123.03
2023-01-31T14:59:34.747Z,100111.39
2023-01-31T15:02:38.028Z,100108.61
2023-01-31T15:05:15.391Z,100106.09
2023-01-31T15:08:35.002Z,100105.38
2023-01-31T15:11:08.974Z,100104.27
2023-01-31T15:13:48.947Z,100104.63
2023-01-31T15:16:28.248Z,100100.75
2023-01-31T15:19:08.267Z,100095.27
2023-01-31T15:21:48.870Z,100095.10
2023-01-31T15:24:28.054Z,100092.60
2023-01-31T15:27:04.395Z,100089.80
2023-01-31T15:30:01.796Z,100087.06
2023-01-31T15:32:41.338Z,100085.59
2023-01-31T15:35:23.814Z,100081.23
2023-01-31T15:38:02.772Z,100076.83
2023-01-31T15:40:35.502Z,100071.90
2023-01-31T15:43:23.419Z,100063.83
2023-01-31T15:45:56.476Z,100064.79
2023-01-31T15:48:29.574Z,100056.88
2023-01-31T15:51:02.496Z,100041.88
2023-01-31T15:53:35.066Z,100050.45
2023-01-31T15:56:16.630Z,100049.21
2023-01-31T15:58:53.082Z,100041.96
2023-01-31T16:01:25.662Z,100039.96
2023-01-31T16:04:00.703Z,100032.09
2023-01-31T16:06:35.914Z,100015.20
2023-01-31T16:09:23.818Z,100027.02
2023-01-31T16:11:57.008Z,100024.27
2023-01-31T16:14:30.788Z,100017.48
2023-01-31T16:17:03.970Z,100016.15
2023-01-31T16:19:37.886Z,100011.88
2023-01-31T16:22:27.950Z,99992.91
2023-01-31T16:25:02.868Z,100001.81
2023-01-31T16:27:39.933Z,100004.83
2023-01-31T16:30:20.029Z,100001.07
2023-01-31T16:32:52.660Z,100000.95
2023-01-31T16:35:28.059Z,99991.52
2023-01-31T16:38:08.687Z,99987.97
2023-01-31T16:40:50.375Z,99984.70
2023-01-31T16:43:26.114Z,99982.65
2023-01-31T16:46:03.059Z,99978.81
2023-01-31T16:48:37.199Z,99971.73
2023-01-31T16:51:41.402Z,99966.77
2023-01-31T16:54:22.060Z,99963.96
2023-01-31T16:57:22.633Z,99956.05
2023-01-31T16:59:56.062Z,99972.19
2023-01-31T17:02:31.625Z,99969.80
2023-01-31T17:05:16.486Z,99963.57
2023-01-31T17:07:49.994Z,99956.48
2023-01-31T17:10:27.659Z,99953.92
2023-01-31T17:13:03.357Z,99933.83
2023-01-31T17:15:35.825Z,99946.55
2023-01-31T17:18:08.776Z,99943.27
2023-01-31T17:20:43.374Z,99934.45
2023-01-31T17:23:16.345Z,99915.05
2023-01-31T17:25:49.250Z,99921.36
2023-01-31T17:28:22.180Z,99924.30
2023-01-31T17:30:54.686Z,99913.77
2023-01-31T17:33:27.660Z,99909.42
2023-01-31T17:36:00.172Z,99911.71
2023-01-31T17:38:33.145Z,99916.46
2023-01-31T17:41:05.810Z,99916.03
2023-01-31T17:43:38.245Z,99910.59
2023-01-31T17:46:13.729Z,99909.86
2023-01-31T17:48:46.391Z,99909.30
2023-01-31T17:51:21.890Z,99906.35
2023-01-31T17:53:54.854Z,99897.23
2023-01-31T17:56:27.415Z,99893.90
2023-01-31T17:59:00.618Z,99892.36
2023-01-31T18:01:33.861Z,99882.68
2023-01-31T18:04:07.342Z,99865.90
2023-01-31T18:06:40.023Z,99871.09
2023-01-31T18:09:15.780Z,99870.08
2023-01-31T18:11:48.467Z,99873.91
2023-01-31T18:14:21.065Z,99864.46
2023-01-31T18:16:55.464Z,99859.31
2023-01-31T18:19:28.581Z,99849.61
2023-01-31T18:22:01.141Z,99830.39
2023-01-31T18:24:35.086Z,99850.08
2023-01-31T18:27:08.275Z,99846.22
2023-01-31T18:29:41.112Z,99829.58
2023-01-31T18:32:14.016Z,99812.38
2023-01-31T18:34:46.904Z,99830.08
2023-01-31T18:37:20.714Z,99824.65
2023-01-31T18:39:54.368Z,99820.27
2023-01-31T18:42:26.900Z,99812.30
2023-01-31T18:44:59.440Z,99801.52
2023-01-31T18:47:37.057Z,99799.95
2023-01-31T18:50:11.525Z,99813.48
2023-01-31T18:52:44.219Z,99801.56
2023-01-31T18:55:17.424Z,99793.89
2023-01-31T18:57:50.336Z,99774.27
2023-01-31T19:00:24.794Z,99778.12
2023-01-31T19:03:03.175Z,99779.88
2023-01-31T19:05:39.717Z,99784.28
2023-01-31T19:08:13.341Z,99786.34
2023-01-31T19:10:46.095Z,99795.42
2023-01-31T19:13:18.602Z,99789.18
2023-01-31T19:15:52.582Z,99802.77
2023-01-31T19:18:30.393Z,99805.03
2023-01-31T19:21:03.223Z,99787.96
2023-01-31T19:23:37.860Z,99783.17
2023-01-31T19:26:11.253Z,99777.74
2023-01-31T19:28:44.007Z,99770.84
2023-01-31T19:31:18.750Z,99763.66
2023-01-31T19:33:50.757Z,99777.23
2023-01-31T19:36:24.601Z,99753.51
2023-01-31T19:38:57.601Z,99764.58
2023-01-31T19:41:31.461Z,99766.88
2023-01-31T19:44:04.682Z,99764.22
2023-01-31T19:46:38.255Z,99762.82
2023-01-31T19:49:11.685Z,99752.95
2023-01-31T19:51:44.434Z,99752.48
2023-01-31T19:54:19.316Z,99732.63
2023-01-31T19:56:53.806Z,99749.63
2023-01-31T19:59:26.357Z,99739.91
2023-01-31T20:01:59.117Z,99735.25
2023-01-31T20:04:32.791Z,99731.13
2023-01-31T20:07:06.239Z,99722.07
2023-01-31T20:09:39.730Z,99713.30
2023-01-31T20:12:13.286Z,99711.69
2023-01-31T20:14:46.707Z,99704.19
2023-01-31T20:17:19.576Z,99698.78
2023-01-31T20:19:52.524Z,99695.04
2023-01-31T20:22:25.508Z,99690.65
2023-01-31T20:24:59.122Z,99687.73
2023-01-31T20:27:35.645Z,99683.83
2023-01-31T20:30:10.843Z,99673.19
2023-01-31T20:32:41.893Z,99685.38
2023-01-31T20:35:14.720Z,99690.64
2023-01-31T20:37:47.684Z,99690.02
2023-01-31T20:40:20.973Z,99696.73
2023-01-31T20:42:54.135Z,99696.83
2023-01-31T20:45:29.097Z,99706.16
2023-01-31T20:48:00.555Z,99713.39
2023-01-31T20:50:33.567Z,99693.00
2023-01-31T20:53:06.635Z,99700.63
2023-01-31T20:55:39.683Z,99695.48
2023-01-31T20:58:13.711Z,99690.54
2023-01-31T21:00:46.497Z,99699.48
2023-01-31T21:03:19.451Z,99703.69
2023-01-31T21:05:52.615Z,99700.27
2023-01-31T21:08:25.240Z,99700.41
2023-01-31T21:10:59.551Z,99703.92
2023-01-31T21:13:33.185Z,99717.48
2023-01-31T21:16:10.907Z,99702.73
2023-01-31T21:18:44.556Z,99698.06
2023-01-31T21:21:23.469Z,99721.06
2023-01-31T21:23:58.240Z,99753.69
2023-01-31T21:26:30.922Z,99865.95
2023-01-31T21:29:05.308Z,99829.58
2023-01-31T21:31:38.104Z,99824.06
2023-01-31T21:34:11.487Z,99819.66
2023-01-31T21:36:45.792Z,99810.45
2023-01-31T21:39:19.061Z,99803.29
2023-01-31T21:42:09.723Z,99799.02
2023-01-31T21:44:42.470Z,99779.92
2023-01-31T21:47:16.270Z,99783.09
2023-01-31T21:49:49.031Z,99778.77
2023-01-31T21:52:21.934Z,99777.02
2023-01-31T21:54:54.556Z,99770.23
2023-01-31T21:57:27.398Z,99772.30
2023-01-31T22:00:00.703Z,99748.80
2023-01-31T22:02:33.281Z,99776.48
2023-01-31T22:05:07.059Z,99773.54
2023-01-31T22:07:40.452Z,99771.57
2023-01-31T22:10:13.834Z,99772.36
2023-01-31T22:12:46.511Z,99779.92
2023-01-31T22:15:19.235Z,99781.55
2023-01-31T22:17:52.364Z,99786.33
2023-01-31T22:20:24.916Z,99783.42
2023-01-31T22:22:58.810Z,99792.51
2023-01-31T22:25:31.325Z,99791.52
2023-01-31T22:28:03.791Z,99795.37
2023-01-31T22:30:36.304Z,99793.73
2023-01-31T22:33:08.821Z,99798.20
2023-01-31T22:35:41.230Z,99792.77
2023-01-31T22:38:13.584Z,99777.29
2023-01-31T22:40:47.063Z,99786.79
2023-01-31T22:43:22.562Z,99790.58
2023-01-31T22:45:57.301Z,99791.74
2023-01-31T22:48:29.597Z,99798.11
2023-01-31T22:51:03.808Z,99793.54
2023-01-31T22:53:38.087Z,99784.77
2023-01-31T22:56:13.595Z,99782.55
2023-01-31T22:58:46.061Z,99781.81
2023-01-31T23:01:21.395Z,99782.35
2023-01-31T23:03:57.143Z,99764.91
2023-01-31T23:06:31.973Z,99773.21
2023-01-31T23:09:05.683Z,99775.99
2023-01-31T23:11:39.392Z,99774.70
2023-01-31T23:14:12.345Z,99776.65
2023-01-31T23:17:02.069Z,99744.13
2023-01-31T23:19:34.620Z,99774.46
2023-01-31T23:22:07.371Z,99769.75
2023-01-31T23:24:40.468Z,99775.73
2023-01-31T23:27:12.760Z,99772.73
2023-01-31T23:29:45.128Z,99781.59
2023-01-31T23:32:17.929Z,99778.16
2023-01-31T23:34:50.747Z,99780.21
2023-01-31T23:37:24.688Z,99776.01
2023-01-31T23:39:56.957Z,99771.63
2023-01-31T23:42:29.694Z,99774.75
2023-01-31T23:45:02.047Z,99773.02
2023-01-31T23:47:34.771Z,99776.54
2023-01-31T23:50:09.020Z,99752.69
2023-01-31T23:52:41.495Z,99769.92
2023-01-31T23:55:15.392Z,99781.90
2023-01-31T23:57:47.863Z,99778.36
